createdAt,value
2019-03-01T00:01:25.425Z,7.53
2019-03-01T00:04:31.204Z,7.07
2019-03-01T00:07:36.971Z,6.30
2019-03-01T00:10:44.656Z,6.93
2019-03-01T00:13:52.571Z,7.17
2019-03-01T00:16:58.570Z,6.80
2019-03-01T00:20:04.350Z,6.70
2019-03-01T00:23:10.118Z,6.93
2019-03-01T00:26:17.827Z,7.33
2019-03-01T00:29:17.100Z,5.97
2019-03-01T00:32:24.778Z,6.83
2019-03-01T00:35:30.879Z,7.37
2019-03-01T00:38:36.639Z,6.87
2019-03-01T00:41:42.444Z,6.20
2019-03-01T00:44:48.555Z,6.97
2019-03-01T00:47:34.690Z,6.50
2019-03-01T00:50:20.586Z,7.23
2019-03-01T00:53:06.487Z,6.83
2019-03-01T00:55:52.381Z,6.90
2019-03-01T00:58:38.269Z,6.33
2019-03-01T01:01:24.391Z,6.70
2019-03-01T01:04:10.293Z,6.73
2019-03-01T01:06:56.415Z,6.63
2019-03-01T01:09:42.314Z,6.67
2019-03-01T01:12:28.438Z,6.50
2019-03-01T01:15:14.330Z,6.23
2019-03-01T01:18:00.465Z,6.23
2019-03-01T01:20:46.370Z,6.60
2019-03-01T01:23:32.278Z,5.93
2019-03-01T01:26:18.167Z,6.40
2019-03-01T01:29:04.080Z,5.53
2019-03-01T01:31:49.960Z,5.70
2019-03-01T01:34:36.099Z,4.80
2019-03-01T01:37:21.983Z,4.93
2019-03-01T01:40:08.691Z,5.43
2019-03-01T01:42:54.681Z,4.80
2019-03-01T01:45:40.816Z,4.87
2019-03-01T01:48:26.968Z,5.10
2019-03-01T01:51:12.847Z,4.97
2019-03-01T01:53:58.735Z,4.43
2019-03-01T01:56:44.641Z,3.97
2019-03-01T01:59:30.623Z,3.93
2019-03-01T02:02:16.526Z,4.07
2019-03-01T02:05:02.912Z,3.93
2019-03-01T02:07:48.810Z,3.80
2019-03-01T02:10:34.950Z,3.57
2019-03-01T02:13:21.089Z,4.00
2019-03-01T02:16:07.220Z,3.60
2019-03-01T02:18:57.863Z,3.83
2019-03-01T02:21:40.885Z,3.40
2019-03-01T02:24:27.016Z,3.93
2019-03-01T02:27:33.035Z,3.93
2019-03-01T02:30:17.716Z,3.83
2019-03-01T02:33:03.626Z,3.40
2019-03-01T02:35:49.739Z,3.10
2019-03-01T02:38:35.879Z,3.30
2019-03-01T02:41:21.985Z,3.00
2019-03-01T02:44:07.895Z,2.60
2019-03-01T02:46:53.787Z,2.57
2019-03-01T02:49:39.689Z,2.80
2019-03-01T02:52:25.570Z,2.27
2019-03-01T02:55:33.292Z,2.53
2019-03-01T02:58:19.407Z,2.10
2019-03-01T03:01:05.535Z,2.30
2019-03-01T03:03:51.422Z,2.63
2019-03-01T03:06:57.439Z,2.20
2019-03-01T03:09:43.523Z,2.63
2019-03-01T03:12:29.431Z,2.03
2019-03-01T03:18:22.788Z,2.00
2019-03-01T03:21:08.675Z,2.60
2019-03-01T03:23:54.570Z,2.30
2019-03-01T03:26:40.679Z,2.07
2019-03-01T03:29:26.580Z,2.80
2019-03-01T03:32:06.265Z,2.20
2019-03-01T03:34:52.456Z,2.57
2019-03-01T03:37:38.565Z,2.70
2019-03-01T03:40:24.695Z,2.37
2019-03-01T03:43:10.780Z,2.33
2019-03-01T03:45:56.681Z,2.33
2019-03-01T03:48:42.563Z,2.90
2019-03-01T03:51:28.463Z,2.63
2019-03-01T03:54:14.343Z,1.97
2019-03-01T03:57:00.503Z,2.43
2019-03-01T03:59:46.418Z,2.93
2019-03-01T04:02:32.535Z,2.60
2019-03-01T04:05:18.663Z,3.60
2019-03-01T04:08:04.788Z,2.53
2019-03-01T04:10:50.768Z,2.97
2019-03-01T04:13:36.889Z,3.10
2019-03-01T04:16:22.787Z,3.00
2019-03-01T04:19:08.670Z,3.13
2019-03-01T04:21:54.564Z,3.00
2019-03-01T04:24:40.688Z,3.60
2019-03-01T04:27:26.574Z,3.13
2019-03-01T04:30:34.251Z,3.10
2019-03-01T04:33:13.968Z,2.90
2019-03-01T04:35:59.859Z,2.70
2019-03-01T04:38:45.754Z,3.30
2019-03-01T04:41:31.649Z,3.73
2019-03-01T04:44:17.770Z,3.60
2019-03-01T04:47:03.663Z,3.00
2019-03-01T04:49:49.559Z,3.73
2019-03-01T04:52:35.710Z,3.90
2019-03-01T04:55:43.385Z,3.80
2019-03-01T04:58:29.298Z,3.93
2019-03-01T05:01:15.401Z,3.97
2019-03-01T05:04:01.294Z,3.80
2019-03-01T05:06:47.174Z,3.60
2019-03-01T05:09:33.072Z,3.73
2019-03-01T05:12:19.192Z,3.53
2019-03-01T05:15:26.869Z,3.77
2019-03-01T05:18:12.775Z,4.30
2019-03-01T05:20:58.903Z,4.37
2019-03-01T05:23:44.808Z,4.10
2019-03-01T05:26:31.027Z,4.40
2019-03-01T05:29:17.152Z,4.53
2019-03-01T05:31:57.188Z,5.23
2019-03-01T05:34:43.351Z,4.47
2019-03-01T05:37:29.235Z,4.03
2019-03-01T05:40:15.215Z,3.87
2019-03-01T05:43:01.109Z,4.17
2019-03-01T05:45:47.254Z,4.77
2019-03-01T05:48:33.143Z,4.57
2019-03-01T05:51:19.045Z,4.97
2019-03-01T05:54:04.924Z,4.20
2019-03-01T05:56:50.857Z,4.60
2019-03-01T05:59:36.739Z,4.53
2019-03-01T06:02:44.418Z,4.53
2019-03-01T06:05:30.409Z,4.90
2019-03-01T06:08:36.428Z,5.87
2019-03-01T06:11:42.204Z,5.37
2019-03-01T06:14:49.879Z,4.67
2019-03-01T06:17:55.665Z,4.50
2019-03-01T06:21:01.424Z,5.07
2019-03-01T06:24:07.456Z,4.30
2019-03-01T06:27:13.454Z,4.50
2019-03-01T06:30:21.374Z,4.97
2019-03-01T06:33:05.509Z,5.17
2019-03-01T06:36:11.295Z,4.73
2019-03-01T06:39:36.934Z,5.23
2019-03-01T06:42:43.005Z,5.40
2019-03-01T06:45:48.793Z,5.67
2019-03-01T06:51:42.466Z,4.67
2019-03-01T06:54:28.363Z,5.00
2019-03-01T06:57:14.271Z,5.50
2019-03-01T07:00:00.349Z,5.00
2019-03-01T07:05:47.313Z,5.47
2019-03-01T07:08:33.224Z,4.73
2019-03-01T07:11:19.204Z,5.17
2019-03-01T07:14:05.288Z,5.33
2019-03-01T07:16:51.484Z,5.57
2019-03-01T07:19:37.370Z,5.30
2019-03-01T07:22:23.288Z,4.90
2019-03-01T07:25:09.184Z,5.77
2019-03-01T07:27:55.086Z,5.53
2019-03-01T07:30:40.980Z,5.40
2019-03-01T07:33:21.014Z,5.97
2019-03-01T07:36:06.892Z,5.77
2019-03-01T07:38:52.794Z,5.67
2019-03-01T07:41:38.674Z,5.67
2019-03-01T07:44:24.731Z,4.97
2019-03-01T07:47:10.619Z,5.13
2019-03-01T07:49:57.018Z,4.90
2019-03-01T07:52:43.012Z,4.40
2019-03-01T07:55:29.448Z,4.27
2019-03-01T07:58:16.924Z,4.30
2019-03-01T08:01:03.259Z,4.87
2019-03-01T08:03:52.280Z,4.20
2019-03-01T08:06:37.423Z,4.27
2019-03-01T08:09:23.551Z,4.00
2019-03-01T08:12:09.460Z,3.90
2019-03-01T08:14:55.585Z,4.23
2019-03-01T08:17:41.486Z,4.27
2019-03-01T08:20:30.444Z,3.90
2019-03-01T08:23:15.447Z,3.63
2019-03-01T08:26:03.387Z,4.20
2019-03-01T08:28:49.244Z,3.47
2019-03-01T08:31:29.505Z,3.07
2019-03-01T08:34:35.426Z,2.90
2019-03-01T08:37:21.593Z,2.87
2019-03-01T08:40:27.375Z,2.23
2019-03-01T08:43:13.313Z,2.40
2019-03-01T08:45:59.262Z,2.60
2019-03-01T08:48:45.154Z,2.80
2019-03-01T08:51:31.065Z,2.53
2019-03-01T08:54:16.966Z,2.47
2019-03-01T08:57:02.950Z,2.40
2019-03-01T08:59:49.074Z,2.40
2019-03-01T09:02:35.191Z,2.50
2019-03-01T09:05:21.332Z,2.47
2019-03-01T09:08:07.219Z,2.27
2019-03-01T09:10:53.150Z,1.00
2019-03-01T09:13:39.284Z,1.00
2019-03-01T09:16:25.216Z,0.80
2019-03-01T09:19:11.103Z,0.70
2019-03-01T09:21:57.003Z,0.90
2019-03-01T09:24:42.893Z,0.90
2019-03-01T09:27:22.790Z,1.00
2019-03-01T09:30:28.736Z,0.87
2019-03-01T09:33:17.134Z,0.87
2019-03-01T09:36:22.791Z,1.07
2019-03-01T09:39:08.676Z,0.70
2019-03-01T09:42:02.838Z,1.00
2019-03-01T09:44:42.383Z,1.10
2019-03-01T09:47:28.267Z,1.20
2019-03-01T09:50:14.180Z,1.50
2019-03-01T09:53:00.064Z,1.70
2019-03-01T09:55:45.950Z,2.20
2019-03-01T09:58:31.839Z,2.50
2019-03-01T10:01:39.531Z,2.97
2019-03-01T10:04:25.444Z,2.80
2019-03-01T10:07:11.558Z,2.70
2019-03-01T10:09:58.237Z,2.47
2019-03-01T10:12:45.242Z,3.23
2019-03-01T10:15:31.308Z,3.37
2019-03-01T10:18:17.228Z,3.30
2019-03-01T10:21:03.259Z,3.77
2019-03-01T10:23:49.140Z,4.10
2019-03-01T10:26:35.290Z,4.10
2019-03-01T10:29:21.427Z,4.27
2019-03-01T10:35:27.664Z,4.97
2019-03-01T10:38:13.806Z,4.13
2019-03-01T10:40:59.694Z,5.07
2019-03-01T10:43:45.612Z,5.50
2019-03-01T10:46:31.488Z,6.00
2019-03-01T10:49:17.615Z,4.87
2019-03-01T10:52:03.502Z,5.57
2019-03-01T10:54:49.630Z,5.47
2019-03-01T10:57:35.551Z,7.30
2019-03-01T11:00:41.331Z,6.83
2019-03-01T11:03:27.455Z,6.77
2019-03-01T11:06:13.353Z,6.87
2019-03-01T11:08:59.500Z,8.40
2019-03-01T11:11:45.383Z,8.80
2019-03-01T11:14:31.391Z,9.13
2019-03-01T11:17:17.510Z,10.20
2019-03-01T11:20:25.480Z,9.57
2019-03-01T11:23:11.414Z,9.57
2019-03-01T11:25:57.310Z,10.30
2019-03-01T11:28:36.417Z,11.27
2019-03-01T11:31:22.315Z,10.43
2019-03-01T11:34:08.455Z,11.20
2019-03-01T11:36:54.447Z,12.23
2019-03-01T11:39:40.357Z,12.73
2019-03-01T11:42:26.252Z,13.50
2019-03-01T11:45:12.479Z,13.00
2019-03-01T11:47:58.364Z,14.23
2019-03-01T11:50:44.271Z,13.27
2019-03-01T11:53:30.223Z,13.67
2019-03-01T11:56:16.116Z,13.40
2019-03-01T11:59:02.026Z,16.13
2019-03-01T12:01:47.913Z,15.23
2019-03-01T12:04:33.811Z,16.27
2019-03-01T12:07:19.695Z,16.53
2019-03-01T12:10:25.480Z,17.97
2019-03-01T12:13:11.367Z,19.40
2019-03-01T12:15:57.265Z,21.13
2019-03-01T12:18:43.151Z,20.67
2019-03-01T12:21:29.061Z,21.53
2019-03-01T12:24:14.976Z,23.47
2019-03-01T12:27:00.990Z,22.33
2019-03-01T12:29:46.891Z,23.97
2019-03-01T12:32:32.795Z,24.47
2019-03-01T12:35:18.706Z,23.87
2019-03-01T12:38:04.591Z,24.13
2019-03-01T12:40:50.491Z,24.77
2019-03-01T12:43:36.404Z,26.50
2019-03-01T12:46:22.275Z,24.47
2019-03-01T12:49:08.184Z,25.93
2019-03-01T12:51:54.330Z,25.90
2019-03-01T12:54:40.231Z,27.97
2019-03-01T12:57:26.111Z,27.20
2019-03-01T13:00:33.795Z,27.63
2019-03-01T13:03:19.706Z,28.43
2019-03-01T13:06:05.804Z,28.03
2019-03-01T13:08:52.419Z,28.60
2019-03-01T13:11:39.714Z,29.47
2019-03-01T13:14:25.620Z,29.70
2019-03-01T13:17:11.734Z,29.03
2019-03-01T13:20:00.737Z,29.77
2019-03-01T13:22:45.481Z,28.63
2019-03-01T13:25:31.373Z,27.93
2019-03-01T13:28:10.583Z,28.70
2019-03-01T13:30:56.700Z,29.77
2019-03-01T13:33:42.833Z,31.13
2019-03-01T13:36:28.719Z,29.27
2019-03-01T13:39:14.618Z,30.10
2019-03-01T13:42:00.506Z,30.00
2019-03-01T13:47:45.069Z,29.30
2019-03-01T13:50:31.220Z,28.80
2019-03-01T13:53:17.342Z,30.67
2019-03-01T13:56:03.234Z,28.20
2019-03-01T13:58:49.138Z,28.73
2019-03-01T14:01:35.025Z,29.07
2019-03-01T14:04:20.925Z,28.43
2019-03-01T14:07:07.051Z,26.13
2019-03-01T14:09:53.179Z,26.80
2019-03-01T14:12:39.066Z,27.80
2019-03-01T14:15:24.975Z,25.63
2019-03-01T14:18:11.090Z,25.03
2019-03-01T14:20:58.134Z,25.37
2019-03-01T14:23:44.806Z,26.53
2019-03-01T14:26:30.711Z,25.60
2019-03-01T14:29:12.850Z,24.97
2019-03-01T14:31:58.734Z,27.33
2019-03-01T14:34:47.724Z,25.70
2019-03-01T14:37:32.651Z,25.10
2019-03-01T14:40:19.016Z,23.83
2019-03-01T14:43:06.663Z,25.13
2019-03-01T14:45:52.812Z,24.43
2019-03-01T14:48:38.832Z,23.93
2019-03-01T14:51:24.986Z,22.70
2019-03-01T14:54:10.974Z,22.33
2019-03-01T14:56:56.846Z,24.50
2019-03-01T15:00:02.642Z,23.43
2019-03-01T15:03:16.035Z,21.23
2019-03-01T15:05:58.220Z,21.13
2019-03-01T15:08:45.025Z,22.03
2019-03-01T15:11:31.911Z,22.60
2019-03-01T15:14:17.812Z,21.60
2019-03-01T15:17:04.158Z,21.33
2019-03-01T15:19:50.137Z,21.37
2019-03-01T15:22:36.152Z,22.00
2019-03-01T15:25:22.259Z,21.27
2019-03-01T15:28:01.411Z,22.37
2019-03-01T15:30:47.635Z,21.93
2019-03-01T15:33:33.538Z,20.93
2019-03-01T15:36:19.445Z,20.90
2019-03-01T15:39:05.429Z,22.00
2019-03-01T15:41:52.427Z,21.40
2019-03-01T15:44:38.318Z,20.83
2019-03-01T15:47:26.662Z,22.77
2019-03-01T15:50:12.875Z,23.80
2019-03-01T15:52:58.828Z,22.13
2019-03-01T15:55:44.707Z,21.90
2019-03-01T15:58:33.040Z,23.33
2019-03-01T16:01:18.902Z,22.87
2019-03-01T16:04:04.790Z,21.80
2019-03-01T16:06:55.297Z,23.80
2019-03-01T16:09:38.487Z,22.73
2019-03-01T16:12:24.519Z,22.63
2019-03-01T16:15:30.319Z,23.07
2019-03-01T16:18:16.199Z,22.63
2019-03-01T16:21:05.282Z,22.73
2019-03-01T16:23:50.229Z,24.00
2019-03-01T16:26:37.294Z,25.10
2019-03-01T16:29:18.510Z,23.53
2019-03-01T16:32:04.808Z,25.00
2019-03-01T16:34:52.178Z,23.67
2019-03-01T16:37:38.735Z,24.00
2019-03-01T16:40:25.396Z,22.50
2019-03-01T16:43:11.287Z,22.57
2019-03-01T16:45:57.450Z,22.97
2019-03-01T16:48:43.522Z,23.03
2019-03-01T16:54:27.976Z,21.67
2019-03-01T16:57:14.996Z,21.90
2019-03-01T17:00:23.447Z,20.93
2019-03-01T17:03:31.219Z,19.53
2019-03-01T17:06:17.347Z,19.93
2019-03-01T17:09:04.319Z,20.03
2019-03-01T17:11:50.199Z,17.83
2019-03-01T17:14:38.580Z,18.90
2019-03-01T17:17:23.882Z,17.57
2019-03-01T17:20:10.219Z,16.97
2019-03-01T17:22:59.534Z,17.17
2019-03-01T17:25:43.994Z,15.10
2019-03-01T17:28:29.912Z,15.43
2019-03-01T17:31:15.805Z,14.17
2019-03-01T17:34:01.922Z,15.10
2019-03-01T17:36:49.953Z,14.43
2019-03-01T17:39:35.611Z,13.77
2019-03-01T17:42:21.540Z,13.17
2019-03-01T17:45:27.391Z,13.40
2019-03-01T17:48:13.279Z,12.27
2019-03-01T17:50:59.227Z,13.30
2019-03-01T17:53:46.275Z,13.27
2019-03-01T17:56:32.910Z,13.43
2019-03-01T17:59:19.026Z,12.80
2019-03-01T18:02:04.939Z,11.47
2019-03-01T18:04:51.078Z,12.43
2019-03-01T18:07:37.055Z,10.90
2019-03-01T18:10:23.063Z,12.23
2019-03-01T18:13:08.946Z,11.23
2019-03-01T18:15:54.856Z,9.83
2019-03-01T18:18:42.473Z,8.80
2019-03-01T18:21:28.566Z,9.43
2019-03-01T18:24:15.212Z,8.80
2019-03-01T18:27:02.583Z,9.27
2019-03-01T18:29:43.331Z,8.97
2019-03-01T18:32:29.552Z,8.60
2019-03-01T18:35:15.443Z,6.83
2019-03-01T18:38:01.339Z,6.67
2019-03-01T18:40:48.563Z,6.73
2019-03-01T18:43:35.280Z,6.43
2019-03-01T18:46:21.178Z,6.27
2019-03-01T18:49:07.071Z,6.87
2019-03-01T18:51:53.207Z,6.17
2019-03-01T18:54:40.090Z,6.40
2019-03-01T18:57:26.907Z,6.70
2019-03-01T19:00:35.787Z,6.13
2019-03-01T19:03:22.377Z,6.20
2019-03-01T19:06:08.274Z,5.47
2019-03-01T19:08:54.233Z,6.93
2019-03-01T19:11:40.143Z,6.10
2019-03-01T19:14:26.029Z,6.27
2019-03-01T19:17:11.932Z,5.23
2019-03-01T19:19:57.823Z,5.73
2019-03-01T19:22:43.717Z,4.93
2019-03-01T19:25:29.608Z,6.40
2019-03-01T19:28:09.543Z,6.33
2019-03-01T19:30:55.430Z,6.17
2019-03-01T19:33:41.791Z,7.10
2019-03-01T19:36:27.770Z,7.17
2019-03-01T19:39:35.354Z,8.17
2019-03-01T19:42:21.863Z,8.60
2019-03-01T19:45:29.547Z,8.73
2019-03-01T19:48:15.447Z,10.10
2019-03-01T19:51:01.841Z,9.87
2019-03-01T19:53:49.119Z,10.73
2019-03-01T19:56:34.995Z,10.97
2019-03-01T19:59:20.947Z,13.00
2019-03-01T20:02:06.839Z,12.70
2019-03-01T20:04:55.655Z,11.90
2019-03-01T20:07:40.576Z,11.13
2019-03-01T20:10:26.563Z,11.57
2019-03-01T20:13:13.038Z,11.87
2019-03-01T20:16:00.488Z,11.30
2019-03-01T20:18:46.388Z,11.27
2019-03-01T20:21:32.269Z,10.97
2019-03-01T20:24:18.399Z,11.10
2019-03-01T20:27:04.283Z,10.27
2019-03-01T20:29:43.526Z,11.57
2019-03-01T20:32:29.404Z,10.87
2019-03-01T20:35:15.399Z,10.60
2019-03-01T20:38:04.411Z,10.47
2019-03-01T20:40:49.570Z,10.73
2019-03-01T20:43:37.869Z,10.57
2019-03-01T20:46:24.470Z,12.80
2019-03-01T20:49:11.059Z,12.27
2019-03-01T20:51:58.741Z,11.67
2019-03-01T20:54:45.187Z,12.13
2019-03-01T20:57:31.071Z,12.90
2019-03-01T21:00:17.963Z,12.83
2019-03-01T21:03:03.847Z,12.17
2019-03-01T21:05:49.742Z,13.50
2019-03-01T21:08:35.635Z,12.87
2019-03-01T21:11:25.454Z,13.13
2019-03-01T21:14:10.354Z,12.60
2019-03-01T21:16:56.243Z,12.73
2019-03-01T21:19:43.706Z,12.13
2019-03-01T21:22:30.243Z,13.87
2019-03-01T21:25:39.654Z,13.50
2019-03-01T21:28:23.819Z,14.07
2019-03-01T21:31:03.713Z,13.43
2019-03-01T21:33:49.601Z,13.73
2019-03-01T21:36:35.510Z,14.67
2019-03-01T21:39:24.101Z,13.43
2019-03-01T21:42:09.192Z,14.70
2019-03-01T21:44:55.098Z,14.63
2019-03-01T21:47:40.988Z,13.87
2019-03-01T21:50:26.894Z,14.80
2019-03-01T21:53:12.782Z,13.97
2019-03-01T21:56:00.664Z,15.03
2019-03-01T21:58:46.475Z,14.63
2019-03-01T22:01:32.376Z,14.17
2019-03-01T22:04:18.291Z,13.57
2019-03-01T22:07:04.175Z,15.10
2019-03-01T22:09:50.093Z,14.90
2019-03-01T22:12:36.076Z,13.93
2019-03-01T22:15:25.571Z,15.30
2019-03-01T22:18:10.759Z,14.77
2019-03-01T22:20:56.887Z,14.93
2019-03-01T22:23:42.782Z,14.30
2019-03-01T22:26:28.682Z,14.63
2019-03-01T22:29:14.581Z,14.67
2019-03-01T22:31:54.040Z,15.83
2019-03-01T22:34:39.924Z,14.53
2019-03-01T22:37:28.407Z,16.60
2019-03-01T22:40:13.862Z,15.17
2019-03-01T22:42:59.746Z,15.63
2019-03-01T22:45:48.918Z,13.50
2019-03-01T22:48:33.459Z,15.10
2019-03-01T22:51:19.371Z,14.43
2019-03-01T22:54:05.286Z,14.13
2019-03-01T22:56:51.175Z,14.03
2019-03-01T22:59:37.312Z,14.83
2019-03-01T23:02:23.194Z,14.10
2019-03-01T23:05:09.218Z,14.43
2019-03-01T23:07:56.833Z,13.97
2019-03-01T23:10:42.899Z,15.60
2019-03-01T23:13:28.783Z,14.60
2019-03-01T23:16:15.927Z,14.67
2019-03-01T23:19:02.904Z,14.07
2019-03-01T23:21:57.448Z,15.03
2019-03-01T23:24:43.342Z,13.73
2019-03-01T23:27:31.885Z,14.10
2019-03-01T23:30:17.447Z,13.97
2019-03-01T23:32:56.604Z,14.90
2019-03-01T23:35:42.498Z,14.50
2019-03-01T23:38:28.382Z,12.77
2019-03-01T23:41:14.275Z,13.00
2019-03-01T23:44:02.857Z,13.50
2019-03-01T23:46:48.219Z,13.20
2019-03-01T23:49:34.343Z,12.13
2019-03-01T23:52:22.877Z,12.00
2019-03-01T23:55:08.026Z,11.60
2019-03-01T23:57:53.934Z,12.10
